Time;durP1;ratioP1;P1;durP2;ratioP2;P2;SDS_P1;SDS_P2;PMS_P1;PMS_P2;Temp;Humidity;BMP_temperature;BMP_pressure;BME280_temperature;BME280_humidity;BME280_pressure;Samples;Min_cycle;Max_cycle;Signal;HPM_P1;HPM_P2
2024/02/22 00:00:01;;;;;;;0.15;0.05;;;;;;;15.97;53.87;99788.22;4937626;29;20032;-69
2024/02/22 00:02:30;;;;;;;0.40;0.20;;;;;;;15.99;54.37;99783.47;4921717;29;20557;-70
2024/02/22 00:04:55;;;;;;;0.10;0.10;;;;;;;16.00;54.81;99790.53;4921963;29;20043;-70
2024/02/22 00:07:21;;;;;;;0.43;0.28;;;;;;;16.01;54.08;99781.41;4939151;29;20032;-70
2024/02/22 00:09:47;;;;;;;0.32;0.20;;;;;;;16.03;54.64;99784.75;4937384;29;20032;-70
2024/02/22 00:12:12;;;;;;;0.13;0.10;;;;;;;16.07;54.09;99792.31;4921926;29;20408;-70
2024/02/22 00:14:39;;;;;;;0.38;0.10;;;;;;;16.08;54.11;99793.16;4937477;29;20028;-70
2024/02/22 00:17:05;;;;;;;1.08;0.10;;;;;;;16.06;54.48;99787.06;4937348;29;20183;-70
2024/02/22 00:19:30;;;;;;;0.50;0.50;;;;;;;16.10;55.04;99780.28;4937395;29;20560;-70
2024/02/22 00:21:55;;;;;;;0.00;0.00;;;;;;;16.10;54.06;99778.41;4937250;29;20032;-70
2024/02/22 00:24:21;;;;;;;0.10;0.05;;;;;;;16.07;54.25;99765.28;4938526;29;20028;-70
2024/02/22 00:26:47;;;;;;;0.05;0.05;;;;;;;16.09;54.42;99767.78;4938359;29;20039;-69
2024/02/22 00:29:12;;;;;;;0.32;0.10;;;;;;;16.09;55.43;99770.47;4921279;29;20036;-70
2024/02/22 00:31:38;;;;;;;0.00;0.00;;;;;;;16.12;54.32;99764.69;4936907;29;20047;-70
2024/02/22 00:34:03;;;;;;;0.30;0.10;;;;;;;16.11;55.04;99763.84;4937867;29;20102;-70
2024/02/22 00:36:28;;;;;;;0.20;0.10;;;;;;;16.13;54.40;99758.28;4938502;29;20039;-71
2024/02/22 00:38:54;;;;;;;0.10;0.10;;;;;;;16.13;53.97;99753.72;4937330;29;20043;-71
2024/02/22 00:41:19;;;;;;;0.55;0.20;;;;;;;16.14;54.48;99754.53;4938482;29;20398;-70
2024/02/22 00:43:45;;;;;;;0.10;0.08;;;;;;;16.15;54.90;99750.81;4936728;29;20130;-70
2024/02/22 00:46:10;;;;;;;0.00;0.00;;;;;;;16.15;54.15;99719.22;4936847;29;20046;-70
2024/02/22 00:48:35;;;;;;;0.10;0.10;;;;;;;16.15;54.73;99727.34;4920692;29;20040;-70
2024/02/22 00:51:01;;;;;;;0.10;0.10;;;;;;;16.17;54.54;99713.63;4920883;29;20048;-70
2024/02/22 00:53:26;;;;;;;0.00;0.00;;;;;;;16.18;55.05;99713.44;4936658;29;20032;-70
2024/02/22 00:55:52;;;;;;;0.00;0.00;;;;;;;16.18;54.99;99708.03;4937851;28;20036;-70
2024/02/22 00:58:17;;;;;;;0.38;0.28;;;;;;;16.20;54.26;99705.13;4938033;29;20118;-70
2024/02/22 01:00:43;;;;;;;0.00;0.00;;;;;;;16.22;55.57;99697.66;4936563;29;20036;-70
2024/02/22 01:03:08;;;;;;;0.10;0.10;;;;;;;16.19;54.55;99682.69;4952458;29;20039;-70
2024/02/22 01:05:33;;;;;;;0.10;0.10;;;;;;;16.23;54.91;99685.84;4936399;29;20561;-69
2024/02/22 01:07:59;;;;;;;0.30;0.10;;;;;;;16.21;54.59;99674.41;4936072;29;20035;-70
2024/02/22 01:10:24;;;;;;;0.00;0.00;;;;;;;16.21;54.54;99663.59;4935952;29;20058;-69
2024/02/22 01:12:50;;;;;;;0.00;0.00;;;;;;;16.22;54.30;99663.38;4937098;29;20070;-69
2024/02/22 01:15:15;;;;;;;0.15;0.10;;;;;;;16.25;54.88;99656.75;4937115;29;20045;-69
2024/02/22 01:17:41;;;;;;;1.83;0.10;;;;;;;16.29;54.45;99656.19;4935764;29;20119;-69
2024/02/22 01:20:06;;;;;;;0.32;0.17;;;;;;;16.33;53.73;99648.53;4951614;29;20036;-69
2024/02/22 01:22:32;;;;;;;0.00;0.00;;;;;;;16.39;54.13;99661.22;4935808;29;20500;-69
2024/02/22 01:24:57;;;;;;;0.38;0.10;;;;;;;16.42;55.21;99655.44;4936711;29;20035;-69
2024/02/22 01:27:23;;;;;;;1.55;0.10;;;;;;;16.42;54.93;99660.84;4936720;29;20040;-69
2024/02/22 01:29:48;;;;;;;0.00;0.00;;;;;;;16.42;54.07;99654.59;4936610;29;20123;-69
2024/02/22 01:32:13;;;;;;;3.63;0.10;;;;;;;16.47;54.44;99652.97;4919455;29;20381;-69
2024/02/22 01:34:40;;;;;;;1.95;0.10;;;;;;;16.48;54.35;99648.41;4935449;29;20416;-69
2024/02/22 01:37:05;;;;;;;0.00;0.00;;;;;;;16.47;54.79;99652.97;4919720;29;20046;-69
2024/02/22 01:39:31;;;;;;;0.47;0.10;;;;;;;16.49;54.68;99642.84;4919867;29;20411;-69
2024/02/22 01:41:56;;;;;;;0.10;0.10;;;;;;;16.52;53.62;99650.56;4935565;29;20043;-69
2024/02/22 01:44:30;;;;;;;0.00;0.00;;;;;;;16.56;54.73;99645.59;4935387;29;20035;-69
2024/02/22 01:46:56;;;;;;;0.10;0.03;;;;;;;16.57;55.18;99650.81;4935544;29;20032;-69
2024/02/22 01:49:23;;;;;;;1.08;0.13;;;;;;;16.56;54.75;99634.78;4951453;29;20044;-69
2024/02/22 01:51:51;;;;;;;1.00;0.10;;;;;;;16.60;55.03;99636.06;4935381;29;20063;-69
2024/02/22 01:54:16;;;;;;;0.08;0.00;;;;;;;16.59;54.51;99619.00;4935612;29;20123;-69
2024/02/22 01:56:41;;;;;;;0.63;0.10;;;;;;;16.66;54.96;99635.28;4936401;29;20038;-69
2024/02/22 01:59:07;;;;;;;0.10;0.10;;;;;;;16.65;53.97;99626.34;4934934;29;20491;-69
2024/02/22 02:01:34;;;;;;;0.10;0.00;;;;;;;16.68;55.04;99623.25;4935107;29;20031;-69
2024/02/22 02:03:59;;;;;;;0.00;0.00;;;;;;;16.70;53.87;99615.75;4934814;29;20048;-69
2024/02/22 02:06:25;;;;;;;0.15;0.10;;;;;;;16.69;54.11;99613.28;4935705;29;20024;-69
2024/02/22 02:08:51;;;;;;;0.17;0.00;;;;;;;16.74;54.97;99619.75;4935165;29;20110;-69
2024/02/22 02:11:16;;;;;;;0.10;0.10;;;;;;;16.73;53.81;99609.94;4950766;29;20024;-69
2024/02/22 02:13:41;;;;;;;0.70;0.05;;;;;;;16.73;54.40;99609.94;4935054;29;20050;-70
2024/02/22 02:16:07;;;;;;;0.00;0.00;;;;;;;16.70;54.40;99604.94;4935053;28;20027;-69
2024/02/22 02:18:32;;;;;;;0.00;0.00;;;;;;;16.72;54.66;99605.56;4919103;29;20030;-70
2024/02/22 02:21:20;;;;;;;0.25;0.10;;;;;;;16.71;54.52;99603.91;4935010;29;20028;-69
2024/02/22 02:24:19;;;;;;;1.10;0.00;;;;;;;16.68;55.60;99601.59;4950718;29;20028;-69
2024/02/22 02:26:45;;;;;;;0.00;0.00;;;;;;;16.65;54.36;99585.78;4936417;29;20059;-69
2024/02/22 02:29:11;;;;;;;0.08;0.03;;;;;;;16.70;54.14;99580.59;4919069;29;20133;-69
2024/02/22 02:31:36;;;;;;;0.10;0.10;;;;;;;16.68;54.73;99588.09;4919064;29;20044;-70
2024/02/22 02:34:02;;;;;;;0.20;0.10;;;;;;;16.72;55.07;99586.63;4918901;29;20054;-70
2024/02/22 02:36:27;;;;;;;0.15;0.05;;;;;;;16.69;54.76;99570.84;4936355;29;20062;-70
2024/02/22 02:38:53;;;;;;;0.10;0.10;;;;;;;16.70;54.47;99571.66;4934850;29;20062;-70
2024/02/22 02:41:18;;;;;;;0.15;0.10;;;;;;;16.73;54.28;99574.81;4935092;29;20118;-70
2024/02/22 02:43:43;;;;;;;1.45;0.10;;;;;;;16.73;54.78;99572.09;4919421;29;20067;-71
2024/02/22 02:46:09;;;;;;;0.43;0.10;;;;;;;16.72;55.06;99565.00;4919440;29;20119;-72
2024/02/22 02:48:34;;;;;;;0.25;0.13;;;;;;;16.72;55.16;99565.00;4935534;29;20044;-72
2024/02/22 02:50:59;;;;;;;0.10;0.10;;;;;;;16.72;55.46;99559.59;4919878;29;20036;-72
2024/02/22 02:53:25;;;;;;;0.28;0.10;;;;;;;16.72;55.02;99554.19;4919722;29;20054;-72
2024/02/22 02:55:50;;;;;;;0.13;0.10;;;;;;;16.69;55.23;99549.22;4936959;29;20078;-71
2024/02/22 02:58:15;;;;;;;0.15;0.00;;;;;;;16.70;54.45;99550.00;4919297;29;20050;-71
2024/02/22 03:00:41;;;;;;;0.10;0.10;;;;;;;16.72;55.49;99548.78;4935517;29;20035;-71
2024/02/22 03:03:06;;;;;;;0.20;0.17;;;;;;;16.74;54.64;99549.44;4936349;29;20088;-71
2024/02/22 03:05:31;;;;;;;5.47;0.10;;;;;;;16.74;54.75;99548.59;4935142;29;20118;-71
2024/02/22 03:07:57;;;;;;;0.00;0.00;;;;;;;16.73;54.57;99545.06;4919069;29;20028;-71
2024/02/22 03:10:23;;;;;;;0.00;0.00;;;;;;;16.78;55.56;99553.41;4919132;29;20465;-71
2024/02/22 03:12:49;;;;;;;0.85;0.82;;;;;;;16.78;54.78;99542.56;4950804;29;20036;-71
2024/02/22 03:15:14;;;;;;;0.22;0.10;;;;;;;16.77;54.47;99543.63;4936122;29;20046;-71
2024/02/22 03:17:39;;;;;;;0.52;0.25;;;;;;;16.76;55.16;99544.66;4952179;28;20040;-71
2024/02/22 03:20:09;;;;;;;2.53;0.10;;;;;;;16.77;55.45;99543.63;4921273;29;20119;-71
2024/02/22 03:22:36;;;;;;;0.10;0.10;;;;;;;16.76;55.30;99541.94;4920682;29;20500;-71
2024/02/22 03:25:01;;;;;;;0.25;0.10;;;;;;;16.77;54.72;99535.53;4937292;29;20043;-72
2024/02/22 03:27:27;;;;;;;0.47;0.40;;;;;;;16.74;55.02;99530.50;4922622;29;20032;-72
2024/02/22 03:29:53;;;;;;;0.63;0.20;;;;;;;16.75;55.73;99532.16;4922743;29;20035;-72
2024/02/22 03:32:18;;;;;;;0.55;0.10;;;;;;;16.73;55.06;99526.13;4938585;29;20047;-72
2024/02/22 03:34:43;;;;;;;0.00;0.00;;;;;;;16.74;54.64;99525.09;4922565;29;20071;-72
2024/02/22 03:37:09;;;;;;;0.15;0.15;;;;;;;16.74;55.25;99516.97;4922437;29;20042;-72
2024/02/22 03:39:35;;;;;;;0.13;0.10;;;;;;;16.75;55.04;99517.81;4939620;29;20036;-71
2024/02/22 03:42:02;;;;;;;0.13;0.10;;;;;;;16.74;55.12;99500.75;4939288;29;20038;-71
2024/02/22 03:44:27;;;;;;;0.13;0.13;;;;;;;16.78;55.32;99498.47;4937977;29;20035;-70
2024/02/22 03:46:53;;;;;;;0.30;0.13;;;;;;;16.76;55.50;99485.16;4922388;29;20116;-70
2024/02/22 03:49:18;;;;;;;0.40;0.10;;;;;;;16.77;55.22;99484.13;4939203;29;20035;-71
2024/02/22 03:51:43;;;;;;;0.43;0.15;;;;;;;16.77;55.04;99486.84;4937651;29;20175;-70
2024/02/22 03:54:09;;;;;;;0.30;0.17;;;;;;;16.75;55.04;99469.97;4939068;29;20067;-70
2024/02/22 03:56:35;;;;;;;0.40;0.20;;;;;;;16.75;55.12;99475.38;4922255;29;20064;-70
2024/02/22 03:59:01;;;;;;;2.70;0.20;;;;;;;16.79;54.92;99468.53;4925472;29;20074;-69
2024/02/22 04:01:27;;;;;;;0.85;0.17;;;;;;;16.80;55.36;99464.81;4942179;29;20023;-69
2024/02/22 04:03:54;;;;;;;0.10;0.10;;;;;;;16.77;55.54;99454.38;4941147;29;20179;-69
2024/02/22 04:06:20;;;;;;;0.17;0.15;;;;;;;16.77;55.07;99454.38;4937838;29;20040;-68
2024/02/22 04:08:45;;;;;;;0.32;0.10;;;;;;;16.77;55.42;99459.78;4937064;29;20175;-68
2024/02/22 04:11:10;;;;;;;0.10;0.10;;;;;;;16.75;54.77;99451.03;4936873;29;20111;-68
2024/02/22 04:13:40;;;;;;;1.83;0.10;;;;;;;16.77;55.86;99453.53;4936719;29;20044;-69
2024/02/22 04:16:06;;;;;;;0.57;0.40;;;;;;;16.78;55.53;99449.78;4936806;29;20123;-68
2024/02/22 04:18:31;;;;;;;1.13;0.20;;;;;;;16.76;55.36;99444.59;4937913;29;20126;-68
2024/02/22 04:20:56;;;;;;;0.15;0.15;;;;;;;16.77;55.25;99448.97;4936803;29;20419;-69
2024/02/22 04:23:22;;;;;;;0.20;0.20;;;;;;;16.75;55.03;99442.91;4936803;29;20048;-69
2024/02/22 04:25:47;;;;;;;0.43;0.30;;;;;;;16.78;55.18;99442.50;4938017;29;20507;-69
2024/02/22 04:28:17;;;;;;;0.28;0.28;;;;;;;16.73;55.35;99431.47;4936784;29;20036;-69
2024/02/22 04:30:43;;;;;;;0.25;0.20;;;;;;;16.82;55.16;99435.66;4936085;29;20047;-68
2024/02/22 04:33:08;;;;;;;2.22;0.43;;;;;;;16.82;55.49;99430.25;4937739;29;20039;-69
2024/02/22 04:35:34;;;;;;;0.30;0.30;;;;;;;16.83;54.88;99428.41;4936438;29;20487;-68
2024/02/22 04:37:59;;;;;;;0.25;0.20;;;;;;;16.84;55.38;99428.19;4936158;29;20123;-69
2024/02/22 04:40:25;;;;;;;0.22;0.20;;;;;;;16.85;55.02;99432.56;4936419;29;20071;-68
2024/02/22 04:42:51;;;;;;;0.20;0.20;;;;;;;16.82;55.90;99427.56;4936237;29;20160;-69
2024/02/22 04:45:16;;;;;;;0.30;0.20;;;;;;;16.86;55.01;99419.88;4920369;29;20550;-69
2024/02/22 04:47:41;;;;;;;0.17;0.17;;;;;;;16.85;55.65;99410.94;4937735;29;20099;-69
2024/02/22 04:50:08;;;;;;;0.28;0.28;;;;;;;16.92;54.81;99412.81;4936489;29;20036;-69
2024/02/22 04:52:33;;;;;;;0.50;0.30;;;;;;;16.92;55.54;99402.81;4936161;29;20055;-69
2024/02/22 04:55:01;;;;;;;0.70;0.50;;;;;;;16.89;55.26;99403.22;4936129;29;20456;-69
2024/02/22 04:57:28;;;;;;;0.80;0.63;;;;;;;16.87;54.81;99399.88;4937293;29;20032;-69
2024/02/22 04:59:54;;;;;;;1.80;0.50;;;;;;;16.86;55.59;99404.47;4920206;29;20091;-69
2024/02/22 05:02:20;;;;;;;1.48;0.52;;;;;;;16.84;55.25;99406.53;4936091;29;20039;-69
2024/02/22 05:04:45;;;;;;;0.70;0.50;;;;;;;16.82;55.38;99394.25;4920508;29;20039;-68
2024/02/22 05:07:10;;;;;;;0.50;0.30;;;;;;;16.86;55.04;99392.84;4919957;29;20036;-69
2024/02/22 05:09:35;;;;;;;0.32;0.30;;;;;;;16.86;54.99;99388.22;4936112;29;20119;-69
2024/02/22 05:12:01;;;;;;;0.85;0.40;;;;;;;16.84;54.71;99374.09;4936024;29;20123;-69
2024/02/22 05:14:26;;;;;;;2.55;1.25;;;;;;;16.88;55.29;99372.66;4935738;29;20040;-69
2024/02/22 05:16:51;;;;;;;1.98;0.60;;;;;;;16.91;54.54;99367.88;4936992;29;20579;-69
2024/02/22 05:19:17;;;;;;;0.73;0.40;;;;;;;16.91;55.24;99362.44;4936729;29;20503;-69
2024/02/22 05:21:42;;;;;;;1.08;0.40;;;;;;;16.93;54.91;99360.38;4935799;29;20036;-69
2024/02/22 05:24:10;;;;;;;2.92;0.30;;;;;;;16.94;54.69;99365.59;4936842;29;20044;-69
2024/02/22 05:26:36;;;;;;;0.77;0.32;;;;;;;16.96;55.23;99358.09;4935918;29;20106;-69
2024/02/22 05:29:01;;;;;;;0.25;0.22;;;;;;;16.97;54.77;99345.41;4935608;29;20059;-69
2024/02/22 05:31:28;;;;;;;0.20;0.20;;;;;;;16.99;54.89;99359.53;4935466;29;20028;-69
2024/02/22 05:33:54;;;;;;;1.15;0.60;;;;;;;16.97;54.19;99353.53;4935248;29;20055;-69
2024/02/22 05:36:21;;;;;;;5.78;0.40;;;;;;;16.98;54.53;99357.88;4935374;29;20495;-69
2024/02/22 05:38:47;;;;;;;0.30;0.30;;;;;;;16.95;54.78;99352.88;4935518;29;20043;-69
2024/02/22 05:41:13;;;;;;;0.30;0.30;;;;;;;16.99;55.50;99364.97;4934463;29;20032;-69
2024/02/22 05:43:39;;;;;;;1.33;0.32;;;;;;;16.98;54.56;99347.03;4935232;29;20115;-69
2024/02/22 05:46:05;;;;;;;0.20;0.20;;;;;;;16.93;54.95;99342.28;4935346;29;20131;-69
2024/02/22 05:48:30;;;;;;;1.20;0.40;;;;;;;16.91;54.47;99330.00;4936325;29;20036;-69
2024/02/22 05:50:55;;;;;;;0.28;0.22;;;;;;;16.86;54.88;99322.50;4936202;29;20036;-69
2024/02/22 05:53:21;;;;;;;1.33;0.20;;;;;;;16.85;55.35;99327.06;4935173;29;20039;-69
2024/02/22 05:55:47;;;;;;;0.52;0.30;;;;;;;16.82;55.30;99322.06;4936350;29;20035;-69
2024/02/22 05:58:14;;;;;;;0.73;0.50;;;;;;;16.82;55.19;99322.06;4934793;29;20111;-69
2024/02/22 06:00:40;;;;;;;0.75;0.52;;;;;;;16.82;54.31;99316.66;4934985;29;20532;-69
2024/02/22 06:03:06;;;;;;;0.28;0.28;;;;;;;16.81;55.04;99309.59;4935294;29;20027;-69
2024/02/22 06:05:31;;;;;;;0.45;0.25;;;;;;;16.79;54.45;99308.13;4919045;29;20091;-69
2024/02/22 06:07:57;;;;;;;1.15;0.68;;;;;;;16.78;54.93;99307.28;4950786;29;20039;-69
2024/02/22 06:10:22;;;;;;;3.70;0.60;;;;;;;16.76;54.23;99298.56;4936211;29;20063;-69
2024/02/22 06:12:47;;;;;;;0.88;0.20;;;;;;;16.79;55.63;99311.66;4934942;29;20032;-69
2024/02/22 06:15:13;;;;;;;1.58;0.65;;;;;;;16.80;54.46;99302.53;4934789;29;20123;-69
2024/02/22 06:17:38;;;;;;;0.63;0.30;;;;;;;16.82;55.49;99283.38;4935156;29;20463;-69
2024/02/22 06:20:05;;;;;;;1.45;0.60;;;;;;;16.82;54.39;99270.69;4934947;29;20043;-69
2024/02/22 06:22:31;;;;;;;0.90;0.70;;;;;;;16.82;55.02;99257.16;4934606;29;20123;-69
2024/02/22 06:24:57;;;;;;;0.57;0.50;;;;;;;16.83;54.49;99248.00;4935923;29;20115;-68
2024/02/22 06:27:22;;;;;;;1.15;0.57;;;;;;;16.83;55.43;99256.09;4934528;29;20115;-69
2024/02/22 06:29:48;;;;;;;2.85;0.60;;;;;;;16.84;54.97;99262.34;4934750;29;20032;-69
2024/02/22 06:32:13;;;;;;;1.27;0.70;;;;;;;16.80;55.21;99253.84;4934578;29;20063;-69
2024/02/22 06:34:39;;;;;;;1.10;0.60;;;;;;;16.77;55.07;99264.25;4934610;29;20048;-69
2024/02/22 06:37:04;;;;;;;0.50;0.50;;;;;;;16.76;54.67;99265.28;4934244;28;20130;-68
2024/02/22 06:39:30;;;;;;;2.20;0.90;;;;;;;16.75;54.78;99266.34;4935612;29;20024;-69
2024/02/22 06:41:55;;;;;;;2.95;0.98;;;;;;;16.73;54.78;99263.81;4918737;29;20167;-66
2024/02/22 06:44:20;;;;;;;2.03;1.00;;;;;;;16.78;55.06;99260.47;4934720;29;20020;-68
2024/02/22 06:46:46;;;;;;;2.67;0.80;;;;;;;16.81;54.88;99258.19;4935179;28;20026;-68
2024/02/22 06:49:15;;;;;;;1.75;1.10;;;;;;;16.83;54.53;99252.59;4934364;29;20110;-68
2024/02/22 06:51:41;;;;;;;1.70;1.23;;;;;;;16.87;55.39;99254.66;4935631;29;20028;-68
2024/02/22 06:54:07;;;;;;;2.95;1.08;;;;;;;16.89;55.50;99246.34;4922862;29;20376;-67
2024/02/22 06:56:32;;;;;;;1.83;1.15;;;;;;;16.89;55.02;99244.47;4954200;29;20019;-68
2024/02/22 06:58:58;;;;;;;2.40;1.02;;;;;;;16.92;55.41;99251.31;4938037;29;20030;-68
2024/02/22 07:01:23;;;;;;;1.33;1.10;;;;;;;16.94;54.28;99246.56;4938102;29;20428;-68
2024/02/22 07:03:49;;;;;;;4.32;1.00;;;;;;;16.96;54.44;99233.66;4938167;29;20027;-68
2024/02/22 07:06:15;;;;;;;1.98;0.77;;;;;;;17.00;55.27;99231.38;4938403;29;20023;-68
2024/02/22 07:08:41;;;;;;;1.02;0.85;;;;;;;17.04;54.43;99232.59;4954078;29;20019;-68
2024/02/22 07:11:10;;;;;;;1.85;1.00;;;;;;;17.04;55.02;99227.19;4939304;29;20083;-68
2024/02/22 07:13:35;;;;;;;1.77;1.10;;;;;;;17.06;54.65;99231.34;4938216;29;20031;-68
2024/02/22 07:16:01;;;;;;;2.38;0.95;;;;;;;17.07;54.91;99216.78;4938073;29;20038;-68
2024/02/22 07:18:26;;;;;;;1.10;0.70;;;;;;;17.10;54.87;99215.53;4938048;29;20023;-67
2024/02/22 07:20:52;;;;;;;2.53;1.02;;;;;;;17.09;54.94;99211.16;4938306;29;20487;-68
2024/02/22 07:23:17;;;;;;;1.33;0.80;;;;;;;17.07;55.14;99205.97;4939440;29;20024;-68
2024/02/22 07:25:42;;;;;;;0.85;0.82;;;;;;;17.12;54.95;99208.03;4938079;29;20055;-68
2024/02/22 07:28:10;;;;;;;2.13;0.80;;;;;;;17.15;54.89;99199.50;4938031;29;20446;-68
2024/02/22 07:30:36;;;;;;;1.23;0.63;;;;;;;17.17;54.45;99189.31;4939729;29;20036;-68
2024/02/22 07:33:01;;;;;;;0.40;0.40;;;;;;;17.21;54.69;99193.22;4938098;29;20542;-67
2024/02/22 07:35:27;;;;;;;1.00;0.88;;;;;;;17.21;53.99;99185.94;4938283;29;20130;-69
2024/02/22 07:37:54;;;;;;;0.85;0.65;;;;;;;17.22;55.03;99178.66;4939596;29;20103;-68
2024/02/22 07:40:19;;;;;;;0.82;0.60;;;;;;;17.25;54.66;99170.94;4939573;29;20032;-68
2024/02/22 07:42:45;;;;;;;3.22;0.90;;;;;;;17.28;54.90;99173.22;4938231;29;20034;-68
2024/02/22 07:45:11;;;;;;;0.90;0.77;;;;;;;17.29;54.86;99163.22;4939121;29;20108;-68
2024/02/22 07:47:36;;;;;;;1.05;0.95;;;;;;;17.32;54.76;99152.81;4939290;28;20052;-68
2024/02/22 07:50:02;;;;;;;5.38;1.08;;;;;;;17.36;55.04;99156.75;4939164;29;20043;-68
2024/02/22 07:52:27;;;;;;;1.20;0.82;;;;;;;17.41;54.92;99143.44;4937460;29;20091;-68
2024/02/22 07:54:53;;;;;;;1.83;0.93;;;;;;;17.51;54.31;99134.00;4938118;29;20400;-68
2024/02/22 07:57:18;;;;;;;0.93;0.80;;;;;;;17.56;54.65;99117.97;4937969;29;20039;-68
2024/02/22 07:59:44;;;;;;;0.88;0.80;;;;;;;17.61;54.53;99116.28;4937723;29;20518;-68
2024/02/22 08:02:09;;;;;;;3.47;1.10;;;;;;;17.69;54.30;99107.91;4937176;29;20043;-68
2024/02/22 08:04:35;;;;;;;1.15;0.82;;;;;;;17.74;54.58;99094.53;4937422;29;20425;-68
2024/02/22 08:07:01;;;;;;;1.20;0.77;;;;;;;17.81;54.25;99094.50;4938504;29;20035;-68
2024/02/22 08:09:26;;;;;;;0.73;0.73;;;;;;;17.89;54.16;99081.53;4937327;29;20035;-68
2024/02/22 08:11:52;;;;;;;0.95;0.80;;;;;;;17.91;54.22;99081.31;4938032;29;20043;-68
2024/02/22 08:14:17;;;;;;;0.63;0.50;;;;;;;17.95;54.42;99086.06;4930268;29;20555;-68
2024/02/22 08:16:42;;;;;;;1.10;0.88;;;;;;;17.99;54.04;99071.03;4917801;29;20036;-68
2024/02/22 08:19:08;;;;;;;1.52;0.95;;;;;;;18.02;53.45;99070.59;4902502;29;20032;-68
2024/02/22 08:21:33;;;;;;;5.50;0.65;;;;;;;18.04;53.48;99068.47;4920059;29;20036;-68
2024/02/22 08:23:59;;;;;;;2.70;0.60;;;;;;;18.09;54.00;99053.47;4920201;29;20035;-68
2024/02/22 08:26:24;;;;;;;0.73;0.73;;;;;;;18.19;54.18;99043.78;4920030;29;20024;-68
2024/02/22 08:28:49;;;;;;;1.02;0.60;;;;;;;18.22;53.86;99020.81;4902203;29;20411;-68
2024/02/22 08:31:15;;;;;;;2.33;0.65;;;;;;;18.36;53.64;99033.19;4901874;29;20057;-68
2024/02/22 08:33:41;;;;;;;1.08;0.82;;;;;;;18.41;53.58;99033.34;4917417;29;20496;-68
2024/02/22 08:36:07;;;;;;;1.58;0.57;;;;;;;18.41;53.80;99019.78;4919014;29;20040;-68
2024/02/22 08:38:32;;;;;;;0.75;0.35;;;;;;;18.42;53.21;99016.03;4917582;29;20506;-68
2024/02/22 08:40:57;;;;;;;2.13;0.55;;;;;;;18.43;53.24;99017.69;4917559;29;20059;-68
2024/02/22 08:43:23;;;;;;;1.50;0.52;;;;;;;18.41;53.65;99011.66;4901856;29;20551;-68
2024/02/22 08:45:49;;;;;;;0.50;0.30;;;;;;;18.40;53.72;99010.00;4919168;29;20028;-68
2024/02/22 08:48:17;;;;;;;0.45;0.10;;;;;;;18.39;53.54;99002.94;4901804;29;20570;-68
2024/02/22 08:50:43;;;;;;;0.45;0.20;;;;;;;18.43;53.53;99001.41;4902309;29;20512;-68
2024/02/22 08:53:08;;;;;;;1.85;0.50;;;;;;;18.45;53.43;98985.78;4917672;29;20172;-68
2024/02/22 08:55:34;;;;;;;0.93;0.60;;;;;;;18.50;53.71;98980.53;4918560;29;20028;-68
2024/02/22 08:57:59;;;;;;;1.33;0.40;;;;;;;18.59;53.70;98973.75;4917390;29;20110;-68
2024/02/22 09:00:25;;;;;;;1.55;0.73;;;;;;;18.63;53.37;98965.97;4901294;29;20412;-68
2024/02/22 09:02:51;;;;;;;2.20;0.70;;;;;;;18.71;53.84;98955.66;4918430;28;20399;-68
2024/02/22 09:05:16;;;;;;;1.85;0.75;;;;;;;18.81;53.43;98955.13;4918488;29;20087;-68
2024/02/22 09:07:42;;;;;;;1.65;0.30;;;;;;;18.91;52.62;98956.22;4901095;29;20024;-68
2024/02/22 09:10:08;;;;;;;0.52;0.52;;;;;;;18.98;52.59;98946.09;4916830;29;20109;-68
2024/02/22 09:12:33;;;;;;;0.50;0.50;;;;;;;19.04;53.20;98941.66;4916911;29;20091;-68
2024/02/22 09:14:59;;;;;;;1.20;0.60;;;;;;;19.10;53.25;98933.41;4916743;29;20035;-68
2024/02/22 09:17:24;;;;;;;0.57;0.57;;;;;;;19.18;53.01;98941.25;4917802;29;20036;-68
2024/02/22 09:19:51;;;;;;;1.35;0.30;;;;;;;19.24;53.08;98927.78;4916750;29;20403;-68
2024/02/22 09:22:17;;;;;;;2.38;0.20;;;;;;;19.32;52.50;98913.91;4900974;29;20040;-68
2024/02/22 09:24:43;;;;;;;2.65;0.30;;;;;;;19.40;52.70;98910.88;4900715;29;20123;-68
2024/02/22 09:27:09;;;;;;;0.17;0.10;;;;;;;19.48;52.21;98896.97;4916680;29;20492;-68
2024/02/22 09:29:35;;;;;;;0.22;0.20;;;;;;;19.58;52.43;98891.78;4916797;29;20032;-68
2024/02/22 09:32:01;;;;;;;1.77;0.30;;;;;;;19.75;52.10;98879.16;4916698;29;20079;-68
2024/02/22 09:34:27;;;;;;;0.47;0.20;;;;;;;19.84;52.26;98868.75;4916120;29;20131;-68
2024/02/22 09:36:53;;;;;;;0.57;0.20;;;;;;;20.03;51.94;98845.81;4917636;29;20032;-68
2024/02/22 09:39:19;;;;;;;2.20;0.20;;;;;;;20.35;52.04;98835.38;4916352;29;20122;-68
2024/02/22 09:41:45;;;;;;;0.60;0.10;;;;;;;20.68;51.24;98833.63;4916261;29;20037;-68
2024/02/22 09:44:11;;;;;;;0.93;0.30;;;;;;;20.96;51.33;98835.50;4916290;29;20051;-68
2024/02/22 09:46:37;;;;;;;0.82;0.47;;;;;;;20.92;51.14;98828.88;4916268;29;20039;-68
2024/02/22 09:49:02;;;;;;;0.50;0.38;;;;;;;21.07;51.08;98809.25;4916309;29;20040;-68
2024/02/22 09:51:35;;;;;;;3.38;0.55;;;;;;;21.95;50.11;98806.59;4916144;29;20437;-68
2024/02/22 09:54:00;;;;;;;1.95;0.63;;;;;;;22.95;48.95;98793.31;4915789;29;20028;-68
2024/02/22 09:56:25;;;;;;;1.27;0.40;;;;;;;23.30;48.10;98781.88;4917305;29;20519;-68
2024/02/22 09:58:51;;;;;;;0.98;0.30;;;;;;;23.52;48.13;98779.88;4900326;29;20028;-68
2024/02/22 10:01:19;;;;;;;0.43;0.40;;;;;;;23.25;48.26;98778.28;4900568;29;20397;-68
2024/02/22 10:03:45;;;;;;;0.22;0.20;;;;;;;22.92;49.44;98776.66;4916418;29;20037;-68
2024/02/22 10:06:16;;;;;;;0.43;0.22;;;;;;;22.61;48.42;98772.75;4900136;29;20141;-68
2024/02/22 10:08:42;;;;;;;1.65;0.30;;;;;;;22.38;49.25;98762.13;4917026;29;20504;-68
2024/02/22 10:11:08;;;;;;;0.20;0.20;;;;;;;22.17;49.28;98754.78;4915724;29;20496;-68
2024/02/22 10:13:34;;;;;;;0.52;0.25;;;;;;;22.01;49.14;98734.69;4917327;29;20040;-69
2024/02/22 10:16:13;;;;;;;1.02;0.20;;;;;;;21.94;48.87;98734.06;4916124;29;20036;-69
2024/02/22 10:18:39;;;;;;;0.52;0.20;;;;;;;22.08;48.98;98718.97;4917878;29;20035;-69
2024/02/22 10:21:16;;;;;;;0.77;0.25;;;;;;;22.19;48.64;98734.38;4916862;29;20479;-69
2024/02/22 10:23:43;;;;;;;0.47;0.20;;;;;;;22.33;49.15;98729.34;4916283;29;20032;-69
2024/02/22 10:26:09;;;;;;;0.20;0.15;;;;;;;22.34;49.19;98726.34;4900478;29;20035;-69
2024/02/22 10:28:34;;;;;;;0.45;0.15;;;;;;;22.31;49.03;98724.13;4916122;29;20348;-69
2024/02/22 10:31:03;;;;;;;0.63;0.20;;;;;;;22.35;49.25;98713.53;4915970;29;20118;-69
2024/02/22 10:33:30;;;;;;;0.28;0.20;;;;;;;22.29;48.42;98699.00;4900152;29;20147;-69
2024/02/22 10:35:59;;;;;;;0.52;0.20;;;;;;;22.23;48.51;98694.59;4915923;29;20048;-69
2024/02/22 10:38:27;;;;;;;0.20;0.10;;;;;;;22.19;49.32;98692.63;4916183;29;20095;-69
2024/02/22 10:40:55;;;;;;;1.55;0.30;;;;;;;22.11;49.15;98693.91;4900130;29;20072;-69
2024/02/22 10:43:22;;;;;;;2.55;0.32;;;;;;;21.99;49.10;98693.22;4916003;29;20039;-69
2024/02/22 10:45:49;;;;;;;0.10;0.10;;;;;;;21.83;49.12;98688.66;4899964;29;20040;-69
2024/02/22 10:48:16;;;;;;;0.52;0.15;;;;;;;21.66;49.10;98686.00;4900777;29;20307;-69
2024/02/22 10:50:43;;;;;;;0.15;0.10;;;;;;;21.53;48.98;98682.78;4916177;29;20500;-69
2024/02/22 10:53:12;;;;;;;0.10;0.10;;;;;;;21.40;50.02;98679.38;4900739;29;20453;-69
2024/02/22 10:55:39;;;;;;;0.38;0.15;;;;;;;21.30;49.92;98679.22;4916320;29;20032;-69
2024/02/22 10:58:06;;;;;;;0.15;0.15;;;;;;;21.22;49.75;98671.47;4915996;29;20036;-69
2024/02/22 11:00:33;;;;;;;0.05;0.00;;;;;;;21.16;50.09;98666.22;4900696;29;20095;-69
2024/02/22 11:02:59;;;;;;;0.60;0.10;;;;;;;21.09;49.85;98644.59;4916433;29;20159;-69
2024/02/22 11:05:33;;;;;;;1.40;0.10;;;;;;;21.02;49.85;98633.03;4899826;29;20035;-69
2024/02/22 11:07:59;;;;;;;0.25;0.10;;;;;;;20.99;49.46;98621.84;4917124;29;20028;-69
2024/02/22 11:10:24;;;;;;;0.10;0.03;;;;;;;20.99;49.60;98606.31;4917234;29;20039;-69
2024/02/22 11:12:51;;;;;;;0.30;0.20;;;;;;;21.05;49.35;98594.41;4917053;29;20033;-69
2024/02/22 11:15:16;;;;;;;0.28;0.10;;;;;;;21.17;49.94;98570.66;4915976;29;20024;-69
2024/02/22 11:17:52;;;;;;;0.10;0.10;;;;;;;21.37;49.04;98570.91;4917012;29;20031;-68
2024/02/22 11:20:18;;;;;;;0.17;0.10;;;;;;;21.34;50.06;98579.59;4899065;29;20062;-69
2024/02/22 11:22:43;;;;;;;1.27;0.40;;;;;;;21.20;49.58;98561.16;4917129;29;20040;-69
2024/02/22 11:25:09;;;;;;;0.47;0.30;;;;;;;21.16;49.24;98563.56;4899650;29;20040;-68
2024/02/22 11:27:36;;;;;;;2.45;0.20;;;;;;;21.12;49.95;98562.44;4915745;29;20544;-68